Time;durP1;ratioP1;P1;durP2;ratioP2;P2;SDS_P1;SDS_P2;PMS_P1;PMS_P2;Temp;Humidity;BMP_temperature;BMP_pressure;BME280_temperature;BME280_humidity;BME280_pressure;Samples;Min_cycle;Max_cycle;Signal;HPM_P1;HPM_P2
2022/08/02 00:01:02;;;;;;;;;;;;;;;;;;5018213;28;19914;-31
2022/08/02 00:03:28;;;;;;;;;;;;;;;;;;5018998;28;19956;-31
2022/08/02 00:05:54;;;;;;;;;;;;;;;;;;5019113;28;20320;-30
2022/08/02 00:08:20;;;;;;;;;;;;;;;;;;5018689;28;20340;-30
2022/08/02 00:10:46;;;;;;;;;;;;;;;;;;5019259;28;19914;-31
2022/08/02 00:13:12;;;;;;;;;;;;;;;;;;5018904;28;19920;-31
2022/08/02 00:15:38;;;;;;;;;;;;;;;;;;5019363;28;19955;-30
2022/08/02 00:18:04;;;;;;;;;;;;;;;;;;5018886;28;20260;-30
2022/08/02 00:20:30;;;;;;;;;;;;;;;;;;5018806;28;19925;-30
2022/08/02 00:22:56;;;;;;;;;;;;;;;;;;5017786;28;19914;-31
2022/08/02 00:25:22;;;;;;;;;;;;;;;;;;5019010;28;20317;-30
2022/08/02 00:27:48;;;;;;;;;;;;;;;;;;5018999;28;20008;-29
2022/08/02 00:30:14;;;;;;;;;;;;;;;;;;5017675;28;20004;-30
2022/08/02 00:32:40;;;;;;;;;;;;;;;;;;5019020;28;19959;-30
2022/08/02 00:35:05;;;;;;;;;;;;;;;;;;5018491;28;19914;-30
2022/08/02 00:37:32;;;;;;;;;;;;;;;;;;5018491;28;19975;-31
2022/08/02 00:39:58;;;;;;;;;;;;;;;;;;5017499;28;19913;-31
2022/08/02 00:42:24;;;;;;;;;;;;;;;;;;5018807;28;19917;-30
2022/08/02 00:44:50;;;;;;;;;;;;;;;;;;5018370;28;19913;-30
2022/08/02 00:47:16;;;;;;;;;;;;;;;;;;5018912;28;19924;-30
2022/08/02 00:49:42;;;;;;;;;;;;;;;;;;5017313;28;19924;-30
2022/08/02 00:52:08;;;;;;;;;;;;;;;;;;5017230;28;20000;-30
2022/08/02 00:54:34;;;;;;;;;;;;;;;;;;5018223;28;19923;-31
2022/08/02 00:57:00;;;;;;;;;;;;;;;;;;5018325;28;19917;-30
2022/08/02 00:59:26;;;;;;;;;;;;;;;;;;5018354;28;19914;-30
2022/08/02 01:01:54;;;;;;;;;;;;;;;;;;5018258;28;20268;-30
2022/08/02 01:04:20;;;;;;;;;;;;;;;;;;5016550;28;20272;-31
2022/08/02 01:06:46;;;;;;;;;;;;;;;;;;5018209;28;19917;-30
2022/08/02 01:09:12;;;;;;;;;;;;;;;;;;5017987;28;20024;-30
2022/08/02 01:11:38;;;;;;;;;;;;;;;;;;5018426;28;19956;-30
2022/08/02 01:14:04;;;;;;;;;;;;;;;;;;5017773;28;20340;-30
2022/08/02 01:16:30;;;;;;;;;;;;;;;;;;5017698;28;19917;-30
2022/08/02 01:18:56;;;;;;;;;;;;;;;;;;5016835;28;19920;-31
2022/08/02 01:21:23;;;;;;;;;;;;;;;;;;5016706;28;20253;-30
2022/08/02 01:23:49;;;;;;;;;;;;;;;;;;5017643;28;20006;-30
2022/08/02 01:26:15;;;;;;;;;;;;;;;;;;5017570;28;19963;-30
2022/08/02 01:28:41;;;;;;;;;;;;;;;;;;5016589;28;19914;-30
2022/08/02 01:31:07;;;;;;;;;;;;;;;;;;5016624;28;19914;-30
2022/08/02 01:33:33;;;;;;;;;;;;;;;;;;5017643;28;20245;-30
2022/08/02 01:35:59;;;;;;;;;;;;;;;;;;5017882;28;19917;-31
2022/08/02 01:38:25;;;;;;;;;;;;;;;;;;5017633;28;19997;-30
2022/08/02 01:40:51;;;;;;;;;;;;;;;;;;5017353;28;19914;-30
2022/08/02 01:43:17;;;;;;;;;;;;;;;;;;5017124;28;19909;-31
2022/08/02 01:45:43;;;;;;;;;;;;;;;;;;5017804;28;19917;-31
2022/08/02 01:48:09;;;;;;;;;;;;;;;;;;5016205;28;19913;-30
2022/08/02 01:50:35;;;;;;;;;;;;;;;;;;5017063;28;19920;-32
2022/08/02 01:53:01;;;;;;;;;;;;;;;;;;5017597;28;19940;-38
2022/08/02 01:55:27;;;;;;;;;;;;;;;;;;5016995;28;19917;-34
2022/08/02 01:57:53;;;;;;;;;;;;;;;;;;5016995;28;19975;-31
2022/08/02 02:00:19;;;;;;;;;;;;;;;;;;5017007;28;19924;-32
2022/08/02 02:02:46;;;;;;;;;;;;;;;;;;5016569;28;19921;-30
2022/08/02 02:05:13;;;;;;;;;;;;;;;;;;5016799;28;19920;-30
2022/08/02 02:07:39;;;;;;;;;;;;;;;;;;5017381;28;19981;-30
2022/08/02 02:10:05;;;;;;;;;;;;;;;;;;5016715;28;20300;-33
2022/08/02 02:12:31;;;;;;;;;;;;;;;;;;5016611;28;19924;-32
2022/08/02 02:14:57;;;;;;;;;;;;;;;;;;5017250;28;19940;-29
2022/08/02 02:17:23;;;;;;;;;;;;;;;;;;5014876;28;19986;-30
2022/08/02 02:19:49;;;;;;;;;;;;;;;;;;5016584;28;19914;-34
2022/08/02 02:22:15;;;;;;;;;;;;;;;;;;5016655;28;19925;-30
2022/08/02 02:24:41;;;;;;;;;;;;;;;;;;5016762;28;20252;-30
2022/08/02 02:27:07;;;;;;;;;;;;;;;;;;5016981;28;19913;-30
2022/08/02 02:29:33;;;;;;;;;;;;;;;;;;5016390;28;19913;-32
2022/08/02 02:31:59;;;;;;;;;;;;;;;;;;5016591;28;19913;-30
2022/08/02 02:34:25;;;;;;;;;;;;;;;;;;5016354;28;19913;-34
2022/08/02 02:36:51;;;;;;;;;;;;;;;;;;5016245;28;19920;-31
2022/08/02 02:39:17;;;;;;;;;;;;;;;;;;5016519;28;19918;-31
2022/08/02 02:41:43;;;;;;;;;;;;;;;;;;5016230;28;20353;-31
2022/08/02 02:44:09;;;;;;;;;;;;;;;;;;5016234;28;20310;-32
2022/08/02 02:46:35;;;;;;;;;;;;;;;;;;5016120;28;19914;-32
2022/08/02 02:49:00;;;;;;;;;;;;;;;;;;5016082;28;20360;-30
2022/08/02 02:51:26;;;;;;;;;;;;;;;;;;5016043;28;19914;-30
2022/08/02 02:53:52;;;;;;;;;;;;;;;;;;5015946;28;19914;-30
2022/08/02 02:56:18;;;;;;;;;;;;;;;;;;5016174;28;20383;-30
2022/08/02 02:58:44;;;;;;;;;;;;;;;;;;5016464;28;19971;-31
2022/08/02 03:03:55;;;;;;;;;;;;;;;;;;5015650;28;20052;-32
2022/08/02 03:06:21;;;;;;;;;;;;;;;;;;5016018;28;19937;-31
2022/08/02 03:08:47;;;;;;;;;;;;;;;;;;5016351;28;20344;-32
2022/08/02 03:11:13;;;;;;;;;;;;;;;;;;5015798;28;19918;-31
2022/08/02 03:13:39;;;;;;;;;;;;;;;;;;5015806;28;19996;-30
2022/08/02 03:16:05;;;;;;;;;;;;;;;;;;5015600;28;19917;-31
2022/08/02 03:18:31;;;;;;;;;;;;;;;;;;5015596;28;19909;-30
2022/08/02 03:20:57;;;;;;;;;;;;;;;;;;5015655;28;19913;-34
2022/08/02 03:23:23;;;;;;;;;;;;;;;;;;5015470;28;19918;-30
2022/08/02 03:25:49;;;;;;;;;;;;;;;;;;5015542;28;19910;-32
2022/08/02 03:28:15;;;;;;;;;;;;;;;;;;5014446;28;19913;-31
2022/08/02 03:30:41;;;;;;;;;;;;;;;;;;5015513;28;19909;-29
2022/08/02 03:33:07;;;;;;;;;;;;;;;;;;5015932;28;20241;-30
2022/08/02 03:35:33;;;;;;;;;;;;;;;;;;5015405;28;19920;-30
2022/08/02 03:37:59;;;;;;;;;;;;;;;;;;5015391;28;19960;-30
2022/08/02 03:40:25;;;;;;;;;;;;;;;;;;5015384;28;19917;-30
2022/08/02 03:42:51;;;;;;;;;;;;;;;;;;5015525;28;20249;-30
2022/08/02 03:45:16;;;;;;;;;;;;;;;;;;5015544;28;19964;-30
2022/08/02 03:47:42;;;;;;;;;;;;;;;;;;5015269;28;19919;-31
2022/08/02 03:50:08;;;;;;;;;;;;;;;;;;5015263;28;19913;-33
2022/08/02 03:52:34;;;;;;;;;;;;;;;;;;5015366;28;20280;-30
2022/08/02 03:55:00;;;;;;;;;;;;;;;;;;5015745;28;19914;-30
2022/08/02 03:57:26;;;;;;;;;;;;;;;;;;5015088;28;19928;-33
2022/08/02 03:59:52;;;;;;;;;;;;;;;;;;5015110;28;19910;-30
2022/08/02 04:02:18;;;;;;;;;;;;;;;;;;5014852;28;19919;-32
2022/08/02 04:04:44;;;;;;;;;;;;;;;;;;5014127;28;20341;-34
2022/08/02 04:07:10;;;;;;;;;;;;;;;;;;5015291;28;19909;-30
2022/08/02 04:09:36;;;;;;;;;;;;;;;;;;5014996;28;19914;-30
2022/08/02 04:12:02;;;;;;;;;;;;;;;;;;5014954;28;19914;-30
2022/08/02 04:14:28;;;;;;;;;;;;;;;;;;5014929;28;19913;-31
2022/08/02 04:16:54;;;;;;;;;;;;;;;;;;5014918;28;20256;-32
2022/08/02 04:19:20;;;;;;;;;;;;;;;;;;5015198;28;19967;-33
2022/08/02 04:21:46;;;;;;;;;;;;;;;;;;5014732;28;19914;-31
2022/08/02 04:24:12;;;;;;;;;;;;;;;;;;5015114;28;19920;-32
2022/08/02 04:26:38;;;;;;;;;;;;;;;;;;5015039;28;19956;-31
2022/08/02 04:29:04;;;;;;;;;;;;;;;;;;5014801;28;19910;-33
2022/08/02 04:31:30;;;;;;;;;;;;;;;;;;5014730;28;19988;-32
2022/08/02 04:33:56;;;;;;;;;;;;;;;;;;5014711;28;19984;-33
2022/08/02 04:36:22;;;;;;;;;;;;;;;;;;5014626;28;19925;-32
2022/08/02 04:38:48;;;;;;;;;;;;;;;;;;5013808;28;20349;-32
2022/08/02 04:41:14;;;;;;;;;;;;;;;;;;5018578;28;19955;-32
2022/08/02 04:43:40;;;;;;;;;;;;;;;;;;5017245;28;20395;-34
2022/08/02 04:46:06;;;;;;;;;;;;;;;;;;5018387;28;19959;-32
2022/08/02 04:48:32;;;;;;;;;;;;;;;;;;5018205;28;19913;-31
2022/08/02 04:50:58;;;;;;;;;;;;;;;;;;5018142;28;20004;-31
2022/08/02 04:53:24;;;;;;;;;;;;;;;;;;5018146;28;20014;-35
2022/08/02 04:55:50;;;;;;;;;;;;;;;;;;5018106;28;19917;-33
2022/08/02 04:58:16;;;;;;;;;;;;;;;;;;5018215;28;19944;-32
2022/08/02 05:00:42;;;;;;;;;;;;;;;;;;5018301;28;19957;-35
2022/08/02 05:03:08;;;;;;;;;;;;;;;;;;5017920;28;19921;-31
2022/08/02 05:05:34;;;;;;;;;;;;;;;;;;5018141;28;19913;-35
2022/08/02 05:08:00;;;;;;;;;;;;;;;;;;5017935;28;19909;-33
2022/08/02 05:10:26;;;;;;;;;;;;;;;;;;5018201;28;19921;-31
2022/08/02 05:12:52;;;;;;;;;;;;;;;;;;5017961;28;19959;-31
2022/08/02 05:15:18;;;;;;;;;;;;;;;;;;5017787;28;19964;-32
2022/08/02 05:17:44;;;;;;;;;;;;;;;;;;5017758;28;19913;-32
2022/08/02 05:20:12;;;;;;;;;;;;;;;;;;5018332;28;20244;-32
2022/08/02 05:22:38;;;;;;;;;;;;;;;;;;5017678;28;19909;-31
2022/08/02 05:25:04;;;;;;;;;;;;;;;;;;5017564;28;19935;-33
2022/08/02 05:27:31;;;;;;;;;;;;;;;;;;5016597;28;19947;-32
2022/08/02 05:29:57;;;;;;;;;;;;;;;;;;5017799;28;19996;-33
2022/08/02 05:32:23;;;;;;;;;;;;;;;;;;5017344;28;20383;-32
2022/08/02 05:34:50;;;;;;;;;;;;;;;;;;5017306;28;19917;-32
2022/08/02 05:37:16;;;;;;;;;;;;;;;;;;5017096;28;19917;-33
2022/08/02 05:39:42;;;;;;;;;;;;;;;;;;5017344;28;19931;-31
2022/08/02 05:42:08;;;;;;;;;;;;;;;;;;5017184;28;20108;-32
2022/08/02 05:44:34;;;;;;;;;;;;;;;;;;5017765;28;19918;-30
2022/08/02 05:47:00;;;;;;;;;;;;;;;;;;5017100;28;19921;-31
2022/08/02 05:49:26;;;;;;;;;;;;;;;;;;5016157;28;20344;-32
2022/08/02 05:51:52;;;;;;;;;;;;;;;;;;5015807;28;20375;-34
2022/08/02 05:54:18;;;;;;;;;;;;;;;;;;5016894;28;20352;-30
2022/08/02 05:56:44;;;;;;;;;;;;;;;;;;5017385;28;19971;-30
2022/08/02 05:59:10;;;;;;;;;;;;;;;;;;5016759;28;20380;-31
2022/08/02 06:01:36;;;;;;;;;;;;;;;;;;5017130;28;19921;-31
2022/08/02 06:04:02;;;;;;;;;;;;;;;;;;5016548;28;19984;-32
2022/08/02 06:06:28;;;;;;;;;;;;;;;;;;5016731;28;19956;-30
2022/08/02 06:08:54;;;;;;;;;;;;;;;;;;5016929;28;20229;-31
2022/08/02 06:11:20;;;;;;;;;;;;;;;;;;5016941;28;19932;-33
2022/08/02 06:13:46;;;;;;;;;;;;;;;;;;5015593;28;19925;-31
2022/08/02 06:16:12;;;;;;;;;;;;;;;;;;5016609;28;19914;-33
2022/08/02 06:18:37;;;;;;;;;;;;;;;;;;5016554;28;19914;-33
2022/08/02 06:21:04;;;;;;;;;;;;;;;;;;5016824;28;19917;-31
2022/08/02 06:23:30;;;;;;;;;;;;;;;;;;5016402;28;19917;-32
2022/08/02 06:25:56;;;;;;;;;;;;;;;;;;5016317;28;19964;-32
2022/08/02 06:28:21;;;;;;;;;;;;;;;;;;5016662;28;19913;-33
2022/08/02 06:30:48;;;;;;;;;;;;;;;;;;5016345;28;19910;-32
2022/08/02 06:33:14;;;;;;;;;;;;;;;;;;5016504;28;20304;-32
2022/08/02 06:35:40;;;;;;;;;;;;;;;;;;5016449;28;19913;-33
2022/08/02 06:38:05;;;;;;;;;;;;;;;;;;5015227;28;20356;-32
2022/08/02 06:40:31;;;;;;;;;;;;;;;;;;5016094;28;19967;-34
2022/08/02 06:42:57;;;;;;;;;;;;;;;;;;5015972;28;19920;-33
2022/08/02 06:45:23;;;;;;;;;;;;;;;;;;5016865;28;19913;-34
2022/08/02 06:47:49;;;;;;;;;;;;;;;;;;5016499;28;20004;-32
2022/08/02 06:50:15;;;;;;;;;;;;;;;;;;5016523;28;20255;-31
2022/08/02 06:52:41;;;;;;;;;;;;;;;;;;5016436;28;19917;-33
2022/08/02 06:55:07;;;;;;;;;;;;;;;;;;5015876;28;19960;-32
2022/08/02 06:57:33;;;;;;;;;;;;;;;;;;5014886;28;19983;-30
2022/08/02 07:00:05;;;;;;;;;;;;;;;;;;5015778;28;19920;-36
2022/08/02 07:02:31;;;;;;;;;;;;;;;;;;5015375;28;19980;-32
2022/08/02 07:04:57;;;;;;;;;;;;;;;;;;5016043;28;19914;-32
2022/08/02 07:07:23;;;;;;;;;;;;;;;;;;5015637;28;19913;-32
2022/08/02 07:09:50;;;;;;;;;;;;;;;;;;5015638;28;19913;-31
2022/08/02 07:12:16;;;;;;;;;;;;;;;;;;5015865;28;19917;-34
2022/08/02 07:14:42;;;;;;;;;;;;;;;;;;5015579;28;20230;-34
2022/08/02 07:17:08;;;;;;;;;;;;;;;;;;5015872;28;19917;-31
2022/08/02 07:19:34;;;;;;;;;;;;;;;;;;5015549;28;19925;-32
2022/08/02 07:21:59;;;;;;;;;;;;;;;;;;5015383;28;19957;-31
2022/08/02 07:24:25;;;;;;;;;;;;;;;;;;5014392;28;20288;-30
2022/08/02 07:26:51;;;;;;;;;;;;;;;;;;5015346;28;19919;-33
2022/08/02 07:29:17;;;;;;;;;;;;;;;;;;5015372;28;20014;-34
2022/08/02 07:31:43;;;;;;;;;;;;;;;;;;5015269;28;19968;-31
2022/08/02 07:34:09;;;;;;;;;;;;;;;;;;5015228;28;20349;-30
2022/08/02 07:36:35;;;;;;;;;;;;;;;;;;5015121;28;19917;-31
2022/08/02 07:39:01;;;;;;;;;;;;;;;;;;5015287;28;20241;-32
2022/08/02 07:41:27;;;;;;;;;;;;;;;;;;5015274;28;19913;-32
2022/08/02 07:43:53;;;;;;;;;;;;;;;;;;5015122;28;19971;-32
2022/08/02 07:46:19;;;;;;;;;;;;;;;;;;5015497;28;19909;-33
2022/08/02 07:48:46;;;;;;;;;;;;;;;;;;5015698;28;20226;-33
2022/08/02 07:51:12;;;;;;;;;;;;;;;;;;5014106;28;20353;-33
2022/08/02 07:53:38;;;;;;;;;;;;;;;;;;5015238;28;19909;-33
2022/08/02 07:56:04;;;;;;;;;;;;;;;;;;5014993;28;19922;-32
2022/08/02 07:58:30;;;;;;;;;;;;;;;;;;5014074;28;19913;-36
2022/08/02 08:00:56;;;;;;;;;;;;;;;;;;5015188;28;20259;-32
2022/08/02 08:03:22;;;;;;;;;;;;;;;;;;5014679;28;19922;-32
2022/08/02 08:05:48;;;;;;;;;;;;;;;;;;5014059;28;19988;-31
2022/08/02 08:08:14;;;;;;;;;;;;;;;;;;5014961;28;19920;-32
2022/08/02 08:10:40;;;;;;;;;;;;;;;;;;5014085;28;19943;-33
2022/08/02 08:13:06;;;;;;;;;;;;;;;;;;5014933;28;19914;-32
2022/08/02 08:15:32;;;;;;;;;;;;;;;;;;5017093;28;19914;-31
2022/08/02 08:17:58;;;;;;;;;;;;;;;;;;5017849;28;20095;-31
2022/08/02 08:20:24;;;;;;;;;;;;;;;;;;5018792;28;20016;-33
2022/08/02 08:22:51;;;;;;;;;;;;;;;;;;5018593;28;19914;-32
2022/08/02 08:25:17;;;;;;;;;;;;;;;;;;5018666;28;19909;-35
2022/08/02 08:27:43;;;;;;;;;;;;;;;;;;5018860;28;19917;-30
2022/08/02 08:30:09;;;;;;;;;;;;;;;;;;5017631;28;20268;-31
2022/08/02 08:32:35;;;;;;;;;;;;;;;;;;5017499;28;19925;-35
2022/08/02 08:35:02;;;;;;;;;;;;;;;;;;5018687;28;19917;-31
2022/08/02 08:37:28;;;;;;;;;;;;;;;;;;5018580;28;19913;-31
2022/08/02 08:39:54;;;;;;;;;;;;;;;;;;5018591;28;20364;-34
2022/08/02 08:42:20;;;;;;;;;;;;;;;;;;5018529;28;20004;-33
2022/08/02 08:44:46;;;;;;;;;;;;;;;;;;5018344;28;19999;-31
2022/08/02 08:47:12;;;;;;;;;;;;;;;;;;5018246;28;19913;-32
2022/08/02 08:49:38;;;;;;;;;;;;;;;;;;5018211;28;19940;-34
2022/08/02 08:52:04;;;;;;;;;;;;;;;;;;5018655;28;19928;-37
2022/08/02 08:54:30;;;;;;;;;;;;;;;;;;5018441;28;19913;-31
2022/08/02 08:56:56;;;;;;;;;;;;;;;;;;5018323;28;20036;-32
2022/08/02 08:59:22;;;;;;;;;;;;;;;;;;5018305;28;20347;-31
2022/08/02 09:01:48;;;;;;;;;;;;;;;;;;5018436;28;20000;-31
2022/08/02 09:04:14;;;;;;;;;;;;;;;;;;5017773;28;20245;-33
2022/08/02 09:06:40;;;;;;;;;;;;;;;;;;5017911;28;19917;-32
2022/08/02 09:09:06;;;;;;;;;;;;;;;;;;5017879;28;19925;-33
2022/08/02 09:11:32;;;;;;;;;;;;;;;;;;5017829;28;19949;-35
2022/08/02 09:13:58;;;;;;;;;;;;;;;;;;5017724;28;20024;-31
2022/08/02 09:16:24;;;;;;;;;;;;;;;;;;5017677;28;19917;-32
2022/08/02 09:18:50;;;;;;;;;;;;;;;;;;5017989;28;20348;-32
2022/08/02 09:21:16;;;;;;;;;;;;;;;;;;5017878;28;19914;-33
2022/08/02 09:23:42;;;;;;;;;;;;;;;;;;5017547;28;20264;-31
2022/08/02 09:26:08;;;;;;;;;;;;;;;;;;5017544;28;20352;-32
2022/08/02 09:28:34;;;;;;;;;;;;;;;;;;5017939;28;19928;-32
2022/08/02 09:31:00;;;;;;;;;;;;;;;;;;5017263;28;19914;-32
2022/08/02 09:33:26;;;;;;;;;;;;;;;;;;5017333;28;19909;-31
2022/08/02 09:35:52;;;;;;;;;;;;;;;;;;5017706;28;20287;-32
2022/08/02 09:38:18;;;;;;;;;;;;;;;;;;5017253;28;19909;-32
2022/08/02 09:40:44;;;;;;;;;;;;;;;;;;5017517;28;19917;-32
2022/08/02 09:43:10;;;;;;;;;;;;;;;;;;5017725;28;19924;-33
2022/08/02 09:45:36;;;;;;;;;;;;;;;;;;5017204;28;20015;-33
2022/08/02 09:48:02;;;;;;;;;;;;;;;;;;5017145;28;19910;-34
2022/08/02 09:50:28;;;;;;;;;;;;;;;;;;5017520;28;19913;-32
2022/08/02 09:52:54;;;;;;;;;;;;;;;;;;5016975;28;20309;-32
2022/08/02 09:55:20;;;;;;;;;;;;;;;;;;5017177;28;19914;-33
2022/08/02 09:57:46;;;;;;;;;;;;;;;;;;5017145;28;19928;-34
2022/08/02 10:00:12;;;;;;;;;;;;;;;;;;5016846;28;20331;-32
2022/08/02 10:02:38;;;;;;;;;;;;;;;;;;5016905;28;19918;-33
2022/08/02 10:05:04;;;;;;;;;;;;;;;;;;5017056;28;19979;-32
2022/08/02 10:07:30;;;;;;;;;;;;;;;;;;5016785;28;20000;-31
2022/08/02 10:09:56;;;;;;;;;;;;;;;;;;5017262;28;19922;-33
2022/08/02 10:12:22;;;;;;;;;;;;;;;;;;5016590;28;20008;-31
2022/08/02 10:14:48;;;;;;;;;;;;;;;;;;5016477;28;19919;-31
2022/08/02 10:17:14;;;;;;;;;;;;;;;;;;5016771;28;20359;-31
2022/08/02 10:19:40;;;;;;;;;;;;;;;;;;5016551;28;19971;-31
2022/08/02 10:22:06;;;;;;;;;;;;;;;;;;5016476;28;19925;-33
2022/08/02 10:24:32;;;;;;;;;;;;;;;;;;5016698;28;19910;-32
2022/08/02 10:26:58;;;;;;;;;;;;;;;;;;5016617;28;19909;-32
2022/08/02 10:29:24;;;;;;;;;;;;;;;;;;5016783;28;20008;-31
2022/08/02 10:31:50;;;;;;;;;;;;;;;;;;5016267;28;19945;-31
2022/08/02 10:34:16;;;;;;;;;;;;;;;;;;5015293;28;19956;-37
2022/08/02 10:36:42;;;;;;;;;;;;;;;;;;5015944;28;20268;-35
2022/08/02 10:39:08;;;;;;;;;;;;;;;;;;5014737;28;20016;-33
2022/08/02 10:41:34;;;;;;;;;;;;;;;;;;5015215;28;19959;-32
2022/08/02 10:44:00;;;;;;;;;;;;;;;;;;5016471;28;20368;-33
2022/08/02 10:46:26;;;;;;;;;;;;;;;;;;5014997;28;19924;-32
2022/08/02 10:48:52;;;;;;;;;;;;;;;;;;5015892;28;19909;-33
2022/08/02 10:51:18;;;;;;;;;;;;;;;;;;5014944;28;19911;-33
2022/08/02 10:53:44;;;;;;;;;;;;;;;;;;5015825;28;20048;-31
2022/08/02 10:56:10;;;;;;;;;;;;;;;;;;5015793;28;20028;-32
2022/08/02 10:58:36;;;;;;;;;;;;;;;;;;5015859;28;19959;-33
2022/08/02 11:01:02;;;;;;;;;;;;;;;;;;5015818;28;19913;-33
2022/08/02 11:03:28;;;;;;;;;;;;;;;;;;5015855;28;20012;-32
2022/08/02 11:05:54;;;;;;;;;;;;;;;;;;5014763;28;19914;-32
2022/08/02 11:08:20;;;;;;;;;;;;;;;;;;5015674;28;19914;-33
2022/08/02 11:10:46;;;;;;;;;;;;;;;;;;5014528;28;19914;-32
2022/08/02 11:13:13;;;;;;;;;;;;;;;;;;5015521;28;19916;-32
2022/08/02 11:15:39;;;;;;;;;;;;;;;;;;5015992;28;19921;-34
2022/08/02 11:18:04;;;;;;;;;;;;;;;;;;5015557;28;19909;-32
2022/08/02 11:20:30;;;;;;;;;;;;;;;;;;5015475;28;19964;-31
2022/08/02 11:22:56;;;;;;;;;;;;;;;;;;5015963;28;19963;-33
2022/08/02 11:25:22;;;;;;;;;;;;;;;;;;5015548;28;19914;-33
2022/08/02 11:27:48;;;;;;;;;;;;;;;;;;5015522;28;19909;-33
2022/08/02 11:30:14;;;;;;;;;;;;;;;;;;5015324;28;19920;-35
2022/08/02 11:32:40;;;;;;;;;;;;;;;;;;5015208;28;20308;-33
2022/08/02 11:35:06;;;;;;;;;;;;;;;;;;5015190;28;19913;-32
2022/08/02 11:37:34;;;;;;;;;;;;;;;;;;5015424;28;20241;-32
2022/08/02 11:40:00;;;;;;;;;;;;;;;;;;5015189;28;19940;-31
2022/08/02 11:42:26;;;;;;;;;;;;;;;;;;5015397;28;19913;-33
2022/08/02 11:44:52;;;;;;;;;;;;;;;;;;5014086;28;19913;-31
2022/08/02 11:47:18;;;;;;;;;;;;;;;;;;5014120;28;19962;-31
2022/08/02 11:49:45;;;;;;;;;;;;;;;;;;5018238;28;19914;-33
2022/08/02 11:52:11;;;;;;;;;;;;;;;;;;5019129;28;19920;-32
2022/08/02 11:54:39;;;;;;;;;;;;;;;;;;5019164;28;20005;-31
2022/08/02 11:57:05;;;;;;;;;;;;;;;;;;5018993;28;19917;-32
2022/08/02 11:59:31;;;;;;;;;;;;;;;;;;5019306;28;19909;-32
2022/08/02 12:01:57;;;;;;;;;;;;;;;;;;5017980;28;19913;-33
2022/08/02 12:04:23;;;;;;;;;;;;;;;;;;5018812;28;19922;-31
2022/08/02 12:06:49;;;;;;;;;;;;;;;;;;5019241;28;19914;-33
2022/08/02 12:09:15;;;;;;;;;;;;;;;;;;5018950;28;19910;-33
2022/08/02 12:11:42;;;;;;;;;;;;;;;;;;5018899;28;19913;-33
2022/08/02 12:14:08;;;;;;;;;;;;;;;;;;5019054;28;19920;-31
2022/08/02 12:19:18;;;;;;;;;;;;;;;;;;5019157;28;20313;-32
2022/08/02 12:21:44;;;;;;;;;;;;;;;;;;5018996;28;19940;-31
2022/08/02 12:24:10;;;;;;;;;;;;;;;;;;5018666;28;19916;-34
2022/08/02 12:26:36;;;;;;;;;;;;;;;;;;5017732;28;20346;-32
2022/08/02 12:29:02;;;;;;;;;;;;;;;;;;5018583;28;19914;-32
2022/08/02 12:31:28;;;;;;;;;;;;;;;;;;5018457;28;20003;-31
2022/08/02 12:33:54;;;;;;;;;;;;;;;;;;5018468;28;19910;-33
2022/08/02 12:36:20;;;;;;;;;;;;;;;;;;5018366;28;20230;-31
2022/08/02 12:38:46;;;;;;;;;;;;;;;;;;5018483;28;19917;-31
2022/08/02 12:41:12;;;;;;;;;;;;;;;;;;5018491;28;20409;-33
2022/08/02 12:43:38;;;;;;;;;;;;;;;;;;5018343;28;19921;-33
2022/08/02 12:46:04;;;;;;;;;;;;;;;;;;5018473;28;20344;-32
2022/08/02 12:48:30;;;;;;;;;;;;;;;;;;5018154;28;19913;-32
2022/08/02 12:50:56;;;;;;;;;;;;;;;;;;5018354;28;19952;-32
2022/08/02 12:53:22;;;;;;;;;;;;;;;;;;5018071;28;19999;-35
2022/08/02 12:55:48;;;;;;;;;;;;;;;;;;5017973;28;21881;-33
2022/08/02 12:58:14;;;;;;;;;;;;;;;;;;5018156;28;19913;-33
2022/08/02 13:00:40;;;;;;;;;;;;;;;;;;5016276;28;19956;-32
2022/08/02 13:03:06;;;;;;;;;;;;;;;;;;5017565;28;20400;-33
2022/08/02 13:05:34;;;;;;;;;;;;;;;;;;5017014;28;20208;-32
2022/08/02 13:08:00;;;;;;;;;;;;;;;;;;5017855;28;19921;-31
2022/08/02 13:10:26;;;;;;;;;;;;;;;;;;5018020;28;19909;-33
2022/08/02 13:12:52;;;;;;;;;;;;;;;;;;5017713;28;20412;-32
2022/08/02 13:15:18;;;;;;;;;;;;;;;;;;5018318;28;20241;-35
2022/08/02 13:17:44;;;;;;;;;;;;;;;;;;5017839;28;20248;-30
2022/08/02 13:20:10;;;;;;;;;;;;;;;;;;5017627;28;19914;-31
2022/08/02 13:22:36;;;;;;;;;;;;;;;;;;5017732;28;19967;-30
2022/08/02 13:25:02;;;;;;;;;;;;;;;;;;5018406;28;19920;-34
2022/08/02 13:27:29;;;;;;;;;;;;;;;;;;5018060;28;20205;-30
2022/08/02 13:29:55;;;;;;;;;;;;;;;;;;5017556;28;19925;-32
2022/08/02 13:32:21;;;;;;;;;;;;;;;;;;5017132;28;19921;-33
2022/08/02 13:34:47;;;;;;;;;;;;;;;;;;5017247;28;19921;-31
2022/08/02 13:37:13;;;;;;;;;;;;;;;;;;5017240;28;20020;-35
2022/08/02 13:39:39;;;;;;;;;;;;;;;;;;5017563;28;20036;-33
2022/08/02 13:42:05;;;;;;;;;;;;;;;;;;5017326;28;19949;-32
2022/08/02 13:44:31;;;;;;;;;;;;;;;;;;5017223;28;19909;-35
2022/08/02 13:46:57;;;;;;;;;;;;;;;;;;5017503;28;19913;-34
2022/08/02 13:49:23;;;;;;;;;;;;;;;;;;5017183;28;19929;-32
2022/08/02 13:51:49;;;;;;;;;;;;;;;;;;5016965;28;20344;-35
2022/08/02 13:54:15;;;;;;;;;;;;;;;;;;5017235;28;19920;-34
2022/08/02 13:56:41;;;;;;;;;;;;;;;;;;5018071;28;19918;-31
2022/08/02 13:59:07;;;;;;;;;;;;;;;;;;5016901;28;20391;-33
2022/08/02 14:01:33;;;;;;;;;;;;;;;;;;5017137;28;19914;-32
2022/08/02 14:03:59;;;;;;;;;;;;;;;;;;5016486;28;19921;-33
2022/08/02 14:06:26;;;;;;;;;;;;;;;;;;5016674;28;19920;-31
2022/08/02 14:08:52;;;;;;;;;;;;;;;;;;5016755;28;19909;-31
2022/08/02 14:11:18;;;;;;;;;;;;;;;;;;5017117;28;19920;-31
2022/08/02 14:13:44;;;;;;;;;;;;;;;;;;5016202;28;19940;-34
2022/08/02 14:16:09;;;;;;;;;;;;;;;;;;5016745;28;19976;-31
2022/08/02 14:18:35;;;;;;;;;;;;;;;;;;5015628;28;20288;-32
2022/08/02 14:21:01;;;;;;;;;;;;;;;;;;5017015;28;19940;-33
2022/08/02 14:23:29;;;;;;;;;;;;;;;;;;5016560;28;19913;-33
2022/08/02 14:25:55;;;;;;;;;;;;;;;;;;5016442;28;19914;-32
2022/08/02 14:28:21;;;;;;;;;;;;;;;;;;5016339;28;19914;-32
2022/08/02 14:30:47;;;;;;;;;;;;;;;;;;5016346;28;19910;-32
2022/08/02 14:33:13;;;;;;;;;;;;;;;;;;5015287;28;20401;-35
2022/08/02 14:35:39;;;;;;;;;;;;;;;;;;5016492;28;20017;-33
2022/08/02 14:38:05;;;;;;;;;;;;;;;;;;5016542;28;20024;-32
2022/08/02 14:40:31;;;;;;;;;;;;;;;;;;5016733;28;19913;-33
2022/08/02 14:42:57;;;;;;;;;;;;;;;;;;5016165;28;20071;-33
2022/08/02 14:45:25;;;;;;;;;;;;;;;;;;5016048;28;19921;-31
2022/08/02 14:47:50;;;;;;;;;;;;;;;;;;5016315;28;19910;-32
2022/08/02 14:50:17;;;;;;;;;;;;;;;;;;5015957;28;20337;-32
2022/08/02 14:52:43;;;;;;;;;;;;;;;;;;5016150;28;20241;-32
2022/08/02 14:55:09;;;;;;;;;;;;;;;;;;5016336;28;19936;-33
2022/08/02 14:57:35;;;;;;;;;;;;;;;;;;5014768;28;20017;-31
2022/08/02 15:00:01;;;;;;;;;;;;;;;;;;5015720;28;19968;-32
2022/08/02 15:02:27;;;;;;;;;;;;;;;;;;5015516;28;19980;-32
2022/08/02 15:04:53;;;;;;;;;;;;;;;;;;5016129;28;19948;-33
2022/08/02 15:07:19;;;;;;;;;;;;;;;;;;5015715;28;20357;-33
2022/08/02 15:09:45;;;;;;;;;;;;;;;;;;5015662;28;19914;-32
2022/08/02 15:12:11;;;;;;;;;;;;;;;;;;5015656;28;19971;-31
2022/08/02 15:14:37;;;;;;;;;;;;;;;;;;5015932;28;19914;-31
2022/08/02 15:17:03;;;;;;;;;;;;;;;;;;5014551;28;20260;-32
2022/08/02 15:19:29;;;;;;;;;;;;;;;;;;5015660;28;19924;-31
2022/08/02 15:21:55;;;;;;;;;;;;;;;;;;5015592;28;19909;-32
2022/08/02 15:24:21;;;;;;;;;;;;;;;;;;5014304;28;19939;-31
2022/08/02 15:26:49;;;;;;;;;;;;;;;;;;5016327;28;20332;-32
2022/08/02 15:29:15;;;;;;;;;;;;;;;;;;5015494;28;19910;-31
2022/08/02 15:31:41;;;;;;;;;;;;;;;;;;5015544;28;19920;-31
2022/08/02 15:34:07;;;;;;;;;;;;;;;;;;5015645;28;19920;-31
2022/08/02 15:36:33;;;;;;;;;;;;;;;;;;5015341;28;19917;-32
2022/08/02 15:38:59;;;;;;;;;;;;;;;;;;5015295;28;20233;-33
2022/08/02 15:41:25;;;;;;;;;;;;;;;;;;5015298;28;19919;-31
2022/08/02 15:43:50;;;;;;;;;;;;;;;;;;5015222;28;19913;-32
2022/08/02 15:46:16;;;;;;;;;;;;;;;;;;5015290;28;19914;-33
2022/08/02 15:48:42;;;;;;;;;;;;;;;;;;5015858;28;19916;-32
2022/08/02 15:51:08;;;;;;;;;;;;;;;;;;5015214;28;19971;-31
2022/08/02 15:53:34;;;;;;;;;;;;;;;;;;5015500;28;19955;-32
2022/08/02 15:56:00;;;;;;;;;;;;;;;;;;5015014;28;19918;-32
2022/08/02 15:58:26;;;;;;;;;;;;;;;;;;5014082;28;19991;-31
2022/08/02 16:00:53;;;;;;;;;;;;;;;;;;5015003;28;20332;-33
2022/08/02 16:03:19;;;;;;;;;;;;;;;;;;5014915;28;20304;-32
2022/08/02 16:05:45;;;;;;;;;;;;;;;;;;5015538;28;19910;-33
2022/08/02 16:08:11;;;;;;;;;;;;;;;;;;5013978;28;19914;-31
2022/08/02 16:10:37;;;;;;;;;;;;;;;;;;5015019;28;19909;-32
2022/08/02 16:15:47;;;;;;;;;;;;;;;;;;5014966;28;19975;-31
2022/08/02 16:18:14;;;;;;;;;;;;;;;;;;5014946;28;19921;-31
2022/08/02 16:20:39;;;;;;;;;;;;;;;;;;5014764;28;19921;-33
2022/08/02 16:23:05;;;;;;;;;;;;;;;;;;5015197;28;19909;-31
2022/08/02 16:25:31;;;;;;;;;;;;;;;;;;5014591;28;19925;-32
2022/08/02 16:27:57;;;;;;;;;;;;;;;;;;5014772;28;19941;-30
2022/08/02 16:30:23;;;;;;;;;;;;;;;;;;5013803;28;19918;-34
2022/08/02 16:32:49;;;;;;;;;;;;;;;;;;5014619;28;20245;-31
2022/08/02 16:35:15;;;;;;;;;;;;;;;;;;5015127;28;19943;-31
2022/08/02 16:37:41;;;;;;;;;;;;;;;;;;5018295;28;19941;-34
2022/08/02 16:40:07;;;;;;;;;;;;;;;;;;5018468;28;19957;-35
2022/08/02 16:42:33;;;;;;;;;;;;;;;;;;5018858;28;19924;-32
2022/08/02 16:44:59;;;;;;;;;;;;;;;;;;5018417;28;19917;-33